createdAt,value
2022-11-29T00:00:52.378Z,11.00
2022-11-29T00:03:19.910Z,8.23
2022-11-29T00:05:47.413Z,5.63
2022-11-29T00:08:16.221Z,9.75
2022-11-29T00:10:43.668Z,10.25
2022-11-29T00:13:11.144Z,11.20
2022-11-29T00:15:39.381Z,6.28
2022-11-29T00:18:08.313Z,7.13
2022-11-29T00:20:36.170Z,4.28
2022-11-29T00:23:03.667Z,8.48
2022-11-29T00:25:32.440Z,7.73
2022-11-29T00:27:59.899Z,5.38
2022-11-29T00:30:27.408Z,7.30
2022-11-29T00:32:54.882Z,9.23
2022-11-29T00:35:22.387Z,7.10
2022-11-29T00:37:49.883Z,8.10
2022-11-29T00:40:17.519Z,8.93
2022-11-29T00:42:46.315Z,10.27
2022-11-29T00:45:13.786Z,4.43
2022-11-29T00:47:41.243Z,8.85
2022-11-29T00:50:09.303Z,8.97
2022-11-29T00:52:36.733Z,6.65
2022-11-29T00:55:04.372Z,8.48
2022-11-29T00:57:31.811Z,6.60
2022-11-29T01:00:00.816Z,11.85
2022-11-29T01:02:28.346Z,10.60
2022-11-29T01:04:55.776Z,11.13
2022-11-29T01:07:23.257Z,7.45
2022-11-29T01:09:50.834Z,8.48
2022-11-29T01:12:18.297Z,11.77
2022-11-29T01:14:45.974Z,11.53
2022-11-29T01:17:15.397Z,9.00
2022-11-29T01:19:47.852Z,12.00
2022-11-29T01:22:18.484Z,10.10
2022-11-29T01:24:46.164Z,11.88
2022-11-29T01:27:13.793Z,9.97
2022-11-29T01:29:41.411Z,12.07
2022-11-29T01:32:08.953Z,9.52
2022-11-29T01:34:38.221Z,8.43
2022-11-29T01:37:05.794Z,12.38
2022-11-29T01:39:33.342Z,8.33
2022-11-29T01:42:02.150Z,6.43
2022-11-29T01:45:02.693Z,11.82
2022-11-29T01:47:31.005Z,7.72
2022-11-29T01:50:00.452Z,5.97
2022-11-29T01:52:30.895Z,9.23
2022-11-29T01:55:02.845Z,7.88
2022-11-29T01:57:32.044Z,13.18
2022-11-29T02:00:07.638Z,8.48
2022-11-29T02:02:39.369Z,10.07
2022-11-29T02:05:09.590Z,12.13
2022-11-29T02:07:38.266Z,15.18
2022-11-29T02:10:07.845Z,12.95
2022-11-29T02:12:45.421Z,10.93
2022-11-29T02:15:28.811Z,11.45
2022-11-29T02:18:22.263Z,17.07
2022-11-29T02:21:11.945Z,18.05
2022-11-29T02:24:05.012Z,13.90
2022-11-29T02:27:00.345Z,20.80
2022-11-29T02:30:02.212Z,19.30
2022-11-29T02:33:06.768Z,24.43
2022-11-29T02:35:53.318Z,13.93
2022-11-29T02:38:43.572Z,20.17
2022-11-29T02:41:26.225Z,17.30
2022-11-29T02:44:19.407Z,14.68
2022-11-29T02:46:57.035Z,14.60
2022-11-29T02:49:42.580Z,19.08
2022-11-29T02:52:17.716Z,21.08
2022-11-29T02:54:49.385Z,15.07
2022-11-29T02:57:24.584Z,20.63
2022-11-29T03:00:01.031Z,16.87
2022-11-29T03:02:35.969Z,17.95
2022-11-29T03:05:13.560Z,17.65
2022-11-29T03:07:47.364Z,22.42
2022-11-29T03:10:24.366Z,15.32
2022-11-29T03:12:54.615Z,19.27
2022-11-29T03:15:29.809Z,16.33
2022-11-29T03:18:17.480Z,14.40
2022-11-29T03:21:05.045Z,17.65
2022-11-29T03:23:38.615Z,13.73
2022-11-29T03:26:09.575Z,13.07
2022-11-29T03:28:40.907Z,19.85
2022-11-29T03:31:16.325Z,14.90
2022-11-29T03:33:50.602Z,14.23
2022-11-29T03:36:30.502Z,15.73
2022-11-29T03:39:04.418Z,19.23
2022-11-29T03:41:36.138Z,18.60
2022-11-29T03:44:13.017Z,15.02
2022-11-29T03:46:48.814Z,22.05
2022-11-29T03:49:22.684Z,12.60
2022-11-29T03:52:01.563Z,18.80
2022-11-29T03:54:36.493Z,17.25
2022-11-29T03:57:04.477Z,17.90
2022-11-29T03:59:46.249Z,19.55
2022-11-29T04:02:52.375Z,14.38
2022-11-29T04:05:58.299Z,16.90
2022-11-29T04:08:49.357Z,16.73
2022-11-29T04:11:54.664Z,14.25
2022-11-29T04:14:38.958Z,20.05
2022-11-29T04:17:30.377Z,21.73
2022-11-29T04:20:11.284Z,14.23
2022-11-29T04:23:09.734Z,20.73
2022-11-29T04:26:27.765Z,18.42
2022-11-29T04:29:17.873Z,18.33
2022-11-29T04:32:03.115Z,23.58
2022-11-29T04:34:51.132Z,16.73
2022-11-29T04:37:39.324Z,18.73
2022-11-29T04:40:30.043Z,17.27
2022-11-29T04:43:22.128Z,18.27
2022-11-29T04:46:40.111Z,17.85
2022-11-29T04:49:24.360Z,17.43
2022-11-29T04:52:10.367Z,20.45
2022-11-29T04:54:46.084Z,15.43
2022-11-29T04:57:23.644Z,15.75
2022-11-29T04:59:58.742Z,24.02
2022-11-29T05:02:35.765Z,18.50
2022-11-29T05:05:14.859Z,13.57
2022-11-29T05:07:49.036Z,12.48
2022-11-29T05:10:26.141Z,23.10
2022-11-29T05:13:00.491Z,12.75
2022-11-29T05:15:53.087Z,16.90
2022-11-29T05:18:28.906Z,12.43
2022-11-29T05:21:06.045Z,18.52
2022-11-29T05:23:49.311Z,11.60
2022-11-29T05:26:23.630Z,19.23
2022-11-29T05:28:59.498Z,16.27
2022-11-29T05:31:46.533Z,11.65
2022-11-29T05:34:37.134Z,11.65
2022-11-29T05:37:16.195Z,13.90
2022-11-29T05:39:58.259Z,18.65
2022-11-29T05:42:39.388Z,11.83
2022-11-29T05:45:15.342Z,15.23
2022-11-29T05:47:51.054Z,12.27
2022-11-29T05:50:24.506Z,21.05
2022-11-29T05:52:58.716Z,23.20
2022-11-29T05:55:40.767Z,10.23
2022-11-29T05:58:17.477Z,21.00
2022-11-29T06:00:51.077Z,18.20
2022-11-29T06:03:30.896Z,15.20
2022-11-29T06:06:02.639Z,17.33
2022-11-29T06:08:37.802Z,15.73
2022-11-29T06:11:14.134Z,13.43
2022-11-29T06:13:52.225Z,11.35
2022-11-29T06:16:43.580Z,18.70
2022-11-29T06:19:42.236Z,17.58
2022-11-29T06:22:25.530Z,13.87
2022-11-29T06:25:03.598Z,14.98
2022-11-29T06:27:45.702Z,18.02
2022-11-29T06:30:15.925Z,24.15
2022-11-29T06:32:51.466Z,23.83
2022-11-29T06:35:43.810Z,21.50
2022-11-29T06:38:18.098Z,21.38
2022-11-29T06:40:46.179Z,22.45
2022-11-29T06:43:14.326Z,24.08
2022-11-29T06:45:49.826Z,25.05
2022-11-29T06:48:22.891Z,21.43
2022-11-29T06:50:59.145Z,16.35
2022-11-29T06:53:37.214Z,17.42
2022-11-29T06:56:13.717Z,25.40
2022-11-29T06:58:50.923Z,21.38
2022-11-29T07:01:29.961Z,22.33
2022-11-29T07:04:12.706Z,27.73
2022-11-29T07:06:42.114Z,14.55
2022-11-29T07:09:14.241Z,17.77
2022-11-29T07:11:42.944Z,22.92
2022-11-29T07:14:11.161Z,17.40
2022-11-29T07:16:47.921Z,22.95
2022-11-29T07:19:25.788Z,23.02
2022-11-29T07:22:02.380Z,19.08
2022-11-29T07:24:42.977Z,19.90
2022-11-29T07:27:19.705Z,16.57
2022-11-29T07:30:03.557Z,19.50
2022-11-29T07:32:48.841Z,13.10
2022-11-29T07:35:25.035Z,17.10
2022-11-29T07:38:03.450Z,19.67
2022-11-29T07:40:37.779Z,15.10
2022-11-29T07:43:20.418Z,23.15
2022-11-29T07:45:47.947Z,25.33
2022-11-29T07:48:17.917Z,17.25
2022-11-29T07:50:45.831Z,23.48
2022-11-29T07:53:17.272Z,19.20
2022-11-29T07:55:45.205Z,22.13
2022-11-29T07:58:13.650Z,19.02
2022-11-29T08:00:41.854Z,15.40
2022-11-29T08:03:10.146Z,19.67
2022-11-29T08:05:38.005Z,21.80
2022-11-29T08:08:05.783Z,20.95
2022-11-29T08:10:35.420Z,16.35
2022-11-29T08:13:02.881Z,24.45
2022-11-29T08:15:30.442Z,20.98
2022-11-29T08:17:57.901Z,18.90
2022-11-29T08:20:25.383Z,18.38
2022-11-29T08:22:57.120Z,21.15
2022-11-29T08:25:25.016Z,19.98
2022-11-29T08:27:54.457Z,21.35
2022-11-29T08:30:23.162Z,18.27
2022-11-29T08:32:51.795Z,17.95
2022-11-29T08:35:21.065Z,18.33
2022-11-29T08:37:48.955Z,16.27
2022-11-29T08:40:17.542Z,22.58
2022-11-29T08:42:45.055Z,19.87
2022-11-29T08:45:14.071Z,19.20
2022-11-29T08:47:42.300Z,17.85
2022-11-29T08:50:12.316Z,17.35
2022-11-29T08:52:59.630Z,21.35
2022-11-29T08:55:31.575Z,16.73
2022-11-29T08:58:02.855Z,20.75
2022-11-29T09:00:31.971Z,18.83
2022-11-29T09:03:19.983Z,17.98
2022-11-29T09:05:47.455Z,23.88
2022-11-29T09:08:15.626Z,20.60
2022-11-29T09:10:43.746Z,17.23
2022-11-29T09:13:11.754Z,20.45
2022-11-29T09:15:43.414Z,16.27
2022-11-29T09:18:11.291Z,21.83
2022-11-29T09:20:38.738Z,19.67
2022-11-29T09:23:06.212Z,13.45
2022-11-29T09:25:33.670Z,15.85
2022-11-29T09:28:02.967Z,19.88
2022-11-29T09:30:31.340Z,20.30
2022-11-29T09:33:02.479Z,18.93
2022-11-29T09:35:30.085Z,17.17
2022-11-29T09:37:57.494Z,18.60
2022-11-29T09:40:32.404Z,16.90
2022-11-29T09:43:07.275Z,23.23
2022-11-29T09:45:39.352Z,16.33
2022-11-29T09:48:27.214Z,19.67
2022-11-29T09:51:00.609Z,19.60
2022-11-29T09:53:44.954Z,23.17
2022-11-29T09:56:19.314Z,20.05
2022-11-29T09:58:50.776Z,20.33
2022-11-29T10:01:22.939Z,20.42
2022-11-29T10:03:55.250Z,23.10
2022-11-29T10:06:26.587Z,19.42
2022-11-29T10:09:01.430Z,21.40
2022-11-29T10:11:34.029Z,21.90
2022-11-29T10:14:09.106Z,22.50
2022-11-29T10:16:44.134Z,20.42
2022-11-29T10:19:20.506Z,23.13
2022-11-29T10:21:57.102Z,23.77
2022-11-29T10:24:27.859Z,23.93
2022-11-29T10:26:55.355Z,22.67
2022-11-29T10:29:24.153Z,20.65
2022-11-29T10:31:54.944Z,23.75
2022-11-29T10:34:26.314Z,21.70
2022-11-29T10:36:59.323Z,27.07
2022-11-29T10:39:34.630Z,24.35
2022-11-29T10:42:04.915Z,22.75
2022-11-29T10:44:34.085Z,22.55
2022-11-29T10:47:07.822Z,20.25
2022-11-29T10:49:40.600Z,16.73
2022-11-29T10:52:18.953Z,17.75
2022-11-29T10:54:48.373Z,18.23
2022-11-29T10:57:18.307Z,15.38
2022-11-29T11:00:00.393Z,18.00
2022-11-29T11:02:28.620Z,16.93
2022-11-29T11:04:57.689Z,19.13
2022-11-29T11:07:28.233Z,21.50
2022-11-29T11:09:58.011Z,18.40
2022-11-29T11:12:28.090Z,17.50
2022-11-29T11:15:15.938Z,21.67
2022-11-29T11:17:58.405Z,20.75
2022-11-29T11:20:30.036Z,17.52
2022-11-29T11:23:00.165Z,19.05
2022-11-29T11:25:30.758Z,15.85
2022-11-29T11:27:59.157Z,25.93
2022-11-29T11:30:29.454Z,19.02
2022-11-29T11:33:18.979Z,24.35
2022-11-29T11:36:02.498Z,21.75
2022-11-29T11:38:30.622Z,21.35
2022-11-29T11:41:20.275Z,26.33
2022-11-29T11:43:57.363Z,23.67
2022-11-29T11:46:45.042Z,26.35
2022-11-29T11:49:13.580Z,24.55
2022-11-29T11:51:44.906Z,23.27
2022-11-29T11:54:15.588Z,22.83
2022-11-29T11:56:43.485Z,23.65
2022-11-29T11:59:19.360Z,20.02
2022-11-29T12:01:47.127Z,25.83
2022-11-29T12:04:18.644Z,19.98
2022-11-29T12:06:51.548Z,23.73
2022-11-29T12:09:28.139Z,22.80
2022-11-29T12:12:04.140Z,21.38
2022-11-29T12:14:41.322Z,23.08
2022-11-29T12:17:19.918Z,22.15
2022-11-29T12:19:58.867Z,23.13
2022-11-29T12:22:34.993Z,24.30
2022-11-29T12:25:07.060Z,31.67
2022-11-29T12:27:34.591Z,22.58
2022-11-29T12:30:02.135Z,23.38
2022-11-29T12:32:48.441Z,25.63
2022-11-29T12:35:39.107Z,22.73
2022-11-29T12:38:20.816Z,22.92
2022-11-29T12:40:53.817Z,23.02
2022-11-29T12:43:32.547Z,19.63
2022-11-29T12:46:08.496Z,19.90
2022-11-29T12:48:48.803Z,15.23
2022-11-29T12:51:26.783Z,18.33
2022-11-29T12:54:22.486Z,17.80
2022-11-29T12:56:59.186Z,16.83
2022-11-29T12:59:41.774Z,15.97
2022-11-29T13:02:25.185Z,14.55
2022-11-29T13:05:00.628Z,19.90
2022-11-29T13:07:43.459Z,16.92
2022-11-29T13:10:35.467Z,18.00
2022-11-29T13:13:12.620Z,16.73
2022-11-29T13:15:45.695Z,15.57
2022-11-29T13:18:22.360Z,18.15
2022-11-29T13:20:58.771Z,15.40
2022-11-29T13:23:45.836Z,16.58
2022-11-29T13:26:23.783Z,19.33
2022-11-29T13:28:51.827Z,22.08
2022-11-29T13:31:21.270Z,16.73
2022-11-29T13:33:57.759Z,18.80
2022-11-29T13:36:35.035Z,17.02
2022-11-29T13:39:12.245Z,17.70
2022-11-29T13:41:49.972Z,18.52
2022-11-29T13:44:23.741Z,13.68
2022-11-29T13:47:03.146Z,19.10
2022-11-29T13:49:55.901Z,19.85
2022-11-29T13:52:38.839Z,22.63
2022-11-29T13:55:18.253Z,26.73
2022-11-29T14:00:50.954Z,16.67
2022-11-29T14:03:32.470Z,25.55
2022-11-29T14:06:11.750Z,24.60
2022-11-29T14:09:10.728Z,20.92
2022-11-29T14:11:33.710Z,19.83
2022-11-29T14:14:07.770Z,23.90
2022-11-29T14:16:39.139Z,16.42
2022-11-29T14:19:21.087Z,27.33
2022-11-29T14:22:31.289Z,17.98
2022-11-29T14:25:43.358Z,17.52
2022-11-29T14:28:29.497Z,15.52
2022-11-29T14:31:01.369Z,23.95
2022-11-29T14:33:43.760Z,19.33
2022-11-29T14:36:39.352Z,20.45
2022-11-29T14:39:25.158Z,19.52
2022-11-29T14:42:02.171Z,23.25
2022-11-29T14:44:31.957Z,25.67
2022-11-29T14:47:07.460Z,29.97
2022-11-29T14:49:41.234Z,27.15
2022-11-29T14:52:17.287Z,33.08
2022-11-29T14:55:09.663Z,27.30
2022-11-29T14:58:06.083Z,31.73
2022-11-29T15:00:43.870Z,35.03
2022-11-29T15:03:19.631Z,31.17
2022-11-29T15:05:51.715Z,36.50
2022-11-29T15:08:33.565Z,33.05
2022-11-29T15:11:05.559Z,30.95
2022-11-29T15:13:34.697Z,31.83
2022-11-29T15:16:21.762Z,37.53
2022-11-29T15:19:07.967Z,37.38
2022-11-29T15:21:43.479Z,36.25
2022-11-29T15:24:13.268Z,32.22
2022-11-29T15:26:55.837Z,45.93
2022-11-29T15:29:23.769Z,35.42
2022-11-29T15:31:54.546Z,29.13
2022-11-29T15:34:32.137Z,35.33
2022-11-29T15:36:59.732Z,34.80
2022-11-29T15:39:32.671Z,34.80
2022-11-29T15:42:04.953Z,37.63
2022-11-29T15:44:35.434Z,35.33
2022-11-29T15:47:16.927Z,25.90
2022-11-29T15:49:45.691Z,27.60
2022-11-29T15:52:20.647Z,26.40
2022-11-29T15:54:52.100Z,27.70
2022-11-29T15:57:25.702Z,31.70
2022-11-29T15:59:56.227Z,33.95
2022-11-29T16:02:27.598Z,31.55
2022-11-29T16:05:02.314Z,27.53
2022-11-29T16:07:32.186Z,33.75
2022-11-29T16:10:04.195Z,24.70
2022-11-29T16:12:31.666Z,35.97
2022-11-29T16:15:01.576Z,25.98
2022-11-29T16:17:31.412Z,36.50
2022-11-29T16:20:23.381Z,30.75
2022-11-29T16:23:05.158Z,29.88
2022-11-29T16:25:37.622Z,25.55
2022-11-29T16:28:05.866Z,28.50
2022-11-29T16:30:33.673Z,26.10
2022-11-29T16:33:03.306Z,28.60
2022-11-29T16:35:33.655Z,28.38
2022-11-29T16:38:04.936Z,35.17
2022-11-29T16:40:34.359Z,35.38
2022-11-29T16:43:20.229Z,24.57
2022-11-29T16:45:47.761Z,27.65
2022-11-29T16:48:29.351Z,38.15
2022-11-29T16:51:24.669Z,27.30
2022-11-29T16:53:53.421Z,21.67
2022-11-29T16:56:23.559Z,32.47
2022-11-29T16:59:20.710Z,38.25
2022-11-29T17:01:41.961Z,32.88
2022-11-29T17:04:09.770Z,28.85
2022-11-29T17:06:38.851Z,28.05
2022-11-29T17:09:06.557Z,31.90
2022-11-29T17:11:34.544Z,26.48
2022-11-29T17:14:01.992Z,34.17
2022-11-29T17:16:29.459Z,31.85
2022-11-29T17:18:56.918Z,36.22
2022-11-29T17:21:26.101Z,33.67
2022-11-29T17:23:55.174Z,30.40
2022-11-29T17:26:25.158Z,38.20
2022-11-29T17:28:53.058Z,41.50
2022-11-29T17:31:22.424Z,42.80
2022-11-29T17:33:50.039Z,46.40
2022-11-29T17:36:20.399Z,46.30
2022-11-29T17:38:48.734Z,28.27
2022-11-29T17:41:20.782Z,37.58
2022-11-29T17:43:48.238Z,40.60
2022-11-29T17:46:18.575Z,36.67
2022-11-29T17:48:46.325Z,32.35
2022-11-29T17:51:43.548Z,40.80
2022-11-29T17:54:04.214Z,44.22
2022-11-29T17:56:33.792Z,51.72
2022-11-29T17:59:03.178Z,57.63
2022-11-29T18:01:33.077Z,44.30
2022-11-29T18:04:02.618Z,49.63
2022-11-29T18:06:31.820Z,50.00
2022-11-29T18:09:00.482Z,52.45
2022-11-29T18:11:29.956Z,45.90
2022-11-29T18:13:59.395Z,44.05
2022-11-29T18:16:29.118Z,47.90
2022-11-29T18:18:58.093Z,42.58
2022-11-29T18:21:26.306Z,43.55
2022-11-29T18:23:54.189Z,45.60
2022-11-29T18:26:23.795Z,52.60
2022-11-29T18:28:51.594Z,50.03
2022-11-29T18:31:21.884Z,52.17
2022-11-29T18:33:51.030Z,43.95
2022-11-29T18:36:21.085Z,45.27
2022-11-29T18:38:49.259Z,44.42
2022-11-29T18:41:18.999Z,36.38
2022-11-29T18:43:47.051Z,31.80
2022-11-29T18:46:16.202Z,39.03
2022-11-29T18:48:46.277Z,37.40
2022-11-29T18:51:16.186Z,50.75
2022-11-29T18:53:44.470Z,36.42
2022-11-29T18:56:15.518Z,36.58
2022-11-29T18:58:44.003Z,53.88
2022-11-29T19:01:13.201Z,54.87
2022-11-29T19:03:43.396Z,45.65
2022-11-29T19:06:13.743Z,43.67
2022-11-29T19:08:41.775Z,43.30
2022-11-29T19:11:10.351Z,44.72
2022-11-29T19:13:38.471Z,37.53
2022-11-29T19:16:08.423Z,45.28
2022-11-29T19:18:36.289Z,38.13
2022-11-29T19:21:05.138Z,39.00
2022-11-29T19:23:34.043Z,56.15
2022-11-29T19:26:05.182Z,53.10
2022-11-29T19:28:32.862Z,45.03
2022-11-29T19:31:00.368Z,52.92
2022-11-29T19:33:27.858Z,51.42
2022-11-29T19:35:55.277Z,45.50
2022-11-29T19:38:22.680Z,61.17
2022-11-29T19:40:51.454Z,49.58
2022-11-29T19:43:18.885Z,57.67
2022-11-29T19:45:46.423Z,57.40
2022-11-29T19:48:14.096Z,45.67
2022-11-29T19:50:41.516Z,55.13
2022-11-29T19:53:10.186Z,45.70
2022-11-29T19:55:43.716Z,55.30
2022-11-29T19:58:12.929Z,54.80
2022-11-29T20:00:40.363Z,61.10
2022-11-29T20:03:07.836Z,50.97
2022-11-29T20:05:35.321Z,63.38
2022-11-29T20:08:02.803Z,50.40
2022-11-29T20:10:30.407Z,53.63
2022-11-29T20:12:57.817Z,39.72
2022-11-29T20:15:26.736Z,63.20
2022-11-29T20:17:54.204Z,51.35
2022-11-29T20:20:21.852Z,49.50
2022-11-29T20:22:49.362Z,52.45
2022-11-29T20:25:16.904Z,64.18
2022-11-29T20:27:44.304Z,56.07
2022-11-29T20:30:13.038Z,67.28
2022-11-29T20:32:42.198Z,61.80
2022-11-29T20:35:10.810Z,61.22
2022-11-29T20:38:00.486Z,58.10
2022-11-29T20:40:36.516Z,43.83
2022-11-29T20:43:14.585Z,60.10
2022-11-29T20:45:42.574Z,54.25
2022-11-29T20:48:18.636Z,66.53
2022-11-29T20:50:53.075Z,57.17
2022-11-29T20:53:32.743Z,52.47
2022-11-29T20:56:00.301Z,48.72
2022-11-29T20:58:27.783Z,55.15
2022-11-29T21:00:55.764Z,50.50
2022-11-29T21:03:25.444Z,50.85
2022-11-29T21:05:54.380Z,59.63
2022-11-29T21:08:22.868Z,54.22
2022-11-29T21:10:51.173Z,49.85
2022-11-29T21:13:20.152Z,53.50
2022-11-29T21:15:48.423Z,52.08
2022-11-29T21:18:23.036Z,50.40
2022-11-29T21:21:03.282Z,53.72
2022-11-29T21:23:39.026Z,49.03
2022-11-29T21:26:11.475Z,52.08
2022-11-29T21:28:45.035Z,50.85
2022-11-29T21:31:13.399Z,49.63
2022-11-29T21:33:41.393Z,55.17
2022-11-29T21:36:11.927Z,46.47
2022-11-29T21:38:39.486Z,48.25
2022-11-29T21:41:07.079Z,41.33
2022-11-29T21:44:04.303Z,37.40
2022-11-29T21:46:22.077Z,37.45
2022-11-29T21:48:51.378Z,40.22
2022-11-29T21:51:20.494Z,31.40
2022-11-29T21:53:48.081Z,29.33
2022-11-29T21:56:15.609Z,31.10
2022-11-29T21:58:43.117Z,35.53
2022-11-29T22:01:13.218Z,23.50
2022-11-29T22:03:41.976Z,26.92
2022-11-29T22:06:11.318Z,27.75
2022-11-29T22:08:42.235Z,28.47
2022-11-29T22:11:11.380Z,29.73
2022-11-29T22:14:00.746Z,28.25
2022-11-29T22:16:28.951Z,28.80
2022-11-29T22:18:56.533Z,26.65
2022-11-29T22:21:24.099Z,24.20
2022-11-29T22:23:54.016Z,29.70
2022-11-29T22:26:21.439Z,24.75
2022-11-29T22:28:48.921Z,23.92
2022-11-29T22:31:16.434Z,24.85
2022-11-29T22:33:43.997Z,24.60
2022-11-29T22:36:13.567Z,27.05
2022-11-29T22:38:41.352Z,22.95
2022-11-29T22:41:12.619Z,27.77
2022-11-29T22:43:43.557Z,23.00
2022-11-29T22:46:13.382Z,26.93
2022-11-29T22:48:42.143Z,27.63
2022-11-29T22:51:11.490Z,27.33
2022-11-29T22:53:40.833Z,22.15
2022-11-29T22:56:11.665Z,27.98
2022-11-29T22:58:39.238Z,29.23
2022-11-29T23:01:09.349Z,21.67
2022-11-29T23:03:37.567Z,24.88
2022-11-29T23:06:07.112Z,25.88
2022-11-29T23:08:34.879Z,28.77
2022-11-29T23:11:04.726Z,28.50
2022-11-29T23:13:35.158Z,25.30
2022-11-29T23:16:03.920Z,21.98
2022-11-29T23:18:31.808Z,30.25
2022-11-29T23:21:02.446Z,25.27
2022-11-29T23:23:29.986Z,21.80
2022-11-29T23:25:57.661Z,22.48
2022-11-29T23:28:25.750Z,26.30
2022-11-29T23:30:54.641Z,24.00
2022-11-29T23:33:23.182Z,18.80
2022-11-29T23:35:50.953Z,21.70
2022-11-29T23:38:19.062Z,25.73
2022-11-29T23:40:46.477Z,24.40
2022-11-29T23:43:13.894Z,25.05
2022-11-29T23:45:41.859Z,22.02
2022-11-29T23:48:10.671Z,17.80
2022-11-29T23:50:38.115Z,26.15
2022-11-29T23:53:05.935Z,24.25
2022-11-29T23:55:33.381Z,19.88
2022-11-29T23:58:01.520Z,24.08
